Terminal Aerodrome Forecast
Issued by NWS Cleveland, OH

Home | Current Version | Previous Version | Graphics & Text | Print | Product List | Glossary On
Versions: 1 2 3 4 5 6 7 8 9 10 11 12 13 14 15 16 17 18 19
509
FTUS41 KCLE 171137
TAFMFD
TAF
KMFD 171137Z 1712/1812 19012KT 6SM -SHRA BR BKN007
      TEMPO 1713/1717 BKN015
     FM171800 24014G22KT 5SM BR BKN012
     FM180000 26009KT 5SM BR VCSH OVC005=

USA.gov is the U.S. government's official web portal to all federal, state and local government web resources and services.